createdAt,value
2022-09-12T00:00:43.592Z,12.63
2022-09-12T00:03:10.268Z,12.60
2022-09-12T00:05:37.138Z,12.45
2022-09-12T00:08:04.801Z,12.55
2022-09-12T00:10:31.801Z,12.50
2022-09-12T00:12:58.511Z,13.10
2022-09-12T00:15:25.259Z,12.48
2022-09-12T00:17:51.959Z,11.85
2022-09-12T00:20:18.727Z,12.63
2022-09-12T00:22:45.399Z,12.82
2022-09-12T00:25:12.260Z,13.40
2022-09-12T00:27:38.934Z,13.32
2022-09-12T00:30:05.780Z,12.85
2022-09-12T00:32:32.670Z,12.88
2022-09-12T00:34:59.426Z,13.25
2022-09-12T00:37:26.119Z,12.68
2022-09-12T00:39:52.919Z,14.57
2022-09-12T00:42:19.665Z,14.73
2022-09-12T00:44:46.461Z,14.10
2022-09-12T00:47:13.790Z,14.55
2022-09-12T00:49:40.589Z,14.98
2022-09-12T00:52:07.281Z,14.45
2022-09-12T00:54:33.997Z,14.95
2022-09-12T00:57:00.647Z,13.77
2022-09-12T00:59:27.400Z,13.43
2022-09-12T01:01:54.215Z,12.93
2022-09-12T01:04:21.086Z,13.57
2022-09-12T01:06:48.105Z,12.43
2022-09-12T01:09:14.830Z,12.27
2022-09-12T01:11:41.588Z,13.32
2022-09-12T01:14:08.374Z,12.20
2022-09-12T01:16:35.097Z,11.88
2022-09-12T01:19:01.837Z,11.30
2022-09-12T01:21:28.501Z,12.07
2022-09-12T01:23:55.247Z,11.63
2022-09-12T01:26:22.450Z,10.15
2022-09-12T01:28:49.181Z,10.80
2022-09-12T01:31:15.883Z,10.57
2022-09-12T01:33:42.661Z,9.27
2022-09-12T01:36:09.289Z,8.52
2022-09-12T01:38:36.346Z,8.63
2022-09-12T01:41:03.066Z,8.73
2022-09-12T01:43:31.580Z,8.82
2022-09-12T01:45:58.473Z,9.00
2022-09-12T01:48:25.227Z,8.73
2022-09-12T01:50:51.904Z,8.32
2022-09-12T01:53:18.722Z,9.02
2022-09-12T01:55:45.367Z,9.00
2022-09-12T01:58:12.047Z,8.48
2022-09-12T02:00:38.699Z,7.90
2022-09-12T02:03:05.366Z,7.43
2022-09-12T02:05:32.182Z,7.22
2022-09-12T02:07:58.959Z,7.20
2022-09-12T02:10:29.117Z,7.22
2022-09-12T02:12:58.546Z,7.68
2022-09-12T02:15:25.159Z,7.45
2022-09-12T02:17:51.825Z,7.22
2022-09-12T02:20:44.072Z,7.10
2022-09-12T02:23:05.163Z,6.97
2022-09-12T02:25:31.830Z,7.22
2022-09-12T02:27:58.542Z,6.32
2022-09-12T02:30:25.207Z,6.65
2022-09-12T02:32:52.315Z,6.68
2022-09-12T02:35:18.948Z,6.43
2022-09-12T02:37:45.644Z,6.10
2022-09-12T02:40:12.436Z,6.00
2022-09-12T02:42:39.162Z,5.78
2022-09-12T02:45:05.900Z,6.10
2022-09-12T02:47:32.643Z,6.00
2022-09-12T02:49:59.307Z,6.53
2022-09-12T02:52:26.057Z,5.97
2022-09-12T02:54:52.699Z,5.93
2022-09-12T02:57:22.555Z,5.75
2022-09-12T02:59:49.952Z,6.00
2022-09-12T03:02:16.781Z,6.28
2022-09-12T03:04:43.680Z,5.75
2022-09-12T03:07:10.343Z,5.32
2022-09-12T03:09:37.017Z,5.90
2022-09-12T03:12:03.730Z,6.05
2022-09-12T03:14:30.424Z,5.65
2022-09-12T03:16:57.060Z,5.20
2022-09-12T03:19:23.820Z,5.15
2022-09-12T03:21:50.504Z,4.93
2022-09-12T03:24:17.234Z,5.10
2022-09-12T03:26:43.924Z,4.28
2022-09-12T03:29:10.836Z,4.72
2022-09-12T03:31:37.549Z,4.45
2022-09-12T03:34:04.273Z,4.68
2022-09-12T03:36:30.920Z,4.88
2022-09-12T03:38:57.610Z,4.65
2022-09-12T03:41:24.316Z,4.28
2022-09-12T03:43:51.286Z,4.45
2022-09-12T03:46:17.976Z,4.60
2022-09-12T03:48:44.678Z,4.68
2022-09-12T03:51:11.380Z,4.75
2022-09-12T03:53:38.082Z,4.50
2022-09-12T03:56:04.708Z,4.60
2022-09-12T03:58:31.410Z,4.40
2022-09-12T04:00:58.089Z,4.40
2022-09-12T04:03:24.856Z,4.93
2022-09-12T04:05:51.505Z,4.63
2022-09-12T04:08:18.346Z,5.10
2022-09-12T04:10:44.985Z,4.80
2022-09-12T04:13:11.747Z,4.45
2022-09-12T04:15:38.418Z,5.10
2022-09-12T04:18:06.068Z,4.65
2022-09-12T04:20:33.009Z,4.95
2022-09-12T04:22:59.746Z,4.63
2022-09-12T04:25:27.202Z,4.88
2022-09-12T04:27:53.961Z,4.82
2022-09-12T04:30:20.641Z,4.57
2022-09-12T04:32:47.580Z,5.15
2022-09-12T04:35:14.338Z,5.20
2022-09-12T04:37:41.107Z,5.82
2022-09-12T04:40:07.869Z,5.78
2022-09-12T04:42:34.719Z,5.07
2022-09-12T04:45:01.481Z,5.63
2022-09-12T04:47:28.202Z,5.07
2022-09-12T04:49:54.891Z,4.93
2022-09-12T04:52:21.634Z,4.90
2022-09-12T04:54:48.384Z,5.15
2022-09-12T04:57:15.204Z,4.97
2022-09-12T04:59:41.893Z,4.95
2022-09-12T05:02:08.768Z,4.90
2022-09-12T05:04:36.046Z,5.00
2022-09-12T05:07:04.104Z,5.15
2022-09-12T05:09:30.821Z,5.35
2022-09-12T05:12:05.632Z,4.50
2022-09-12T05:14:33.096Z,5.43
2022-09-12T05:17:01.693Z,5.35
2022-09-12T05:19:28.858Z,4.75
2022-09-12T05:21:56.283Z,4.90
2022-09-12T05:24:23.071Z,5.00
2022-09-12T05:26:50.058Z,4.75
2022-09-12T05:29:16.803Z,5.45
2022-09-12T05:31:43.496Z,4.35
2022-09-12T05:34:10.393Z,4.40
2022-09-12T05:36:37.276Z,5.03
2022-09-12T05:39:04.679Z,4.30
2022-09-12T05:41:31.375Z,4.22
2022-09-12T05:43:58.105Z,4.38
2022-09-12T05:46:25.738Z,5.05
2022-09-12T05:48:56.116Z,5.00
2022-09-12T05:51:23.462Z,4.50
2022-09-12T05:53:50.222Z,4.05
2022-09-12T05:56:17.263Z,3.78
2022-09-12T05:58:44.042Z,4.13
2022-09-12T06:01:11.522Z,4.00
2022-09-12T06:03:38.408Z,4.03
2022-09-12T06:06:05.348Z,3.92
2022-09-12T06:08:32.105Z,3.25
2022-09-12T06:11:02.277Z,4.00
2022-09-12T06:13:29.273Z,3.60
2022-09-12T06:15:56.058Z,3.30
2022-09-12T06:18:22.830Z,3.50
2022-09-12T06:20:49.497Z,3.40
2022-09-12T06:23:16.376Z,3.20
2022-09-12T06:25:43.137Z,2.80
2022-09-12T06:28:09.913Z,3.00
2022-09-12T06:30:36.968Z,3.22
2022-09-12T06:33:03.740Z,2.97
2022-09-12T06:35:30.457Z,3.05
2022-09-12T06:37:57.185Z,3.00
2022-09-12T06:40:23.884Z,3.38
2022-09-12T06:42:50.746Z,2.70
2022-09-12T06:45:31.630Z,2.65
2022-09-12T06:47:58.410Z,2.55
2022-09-12T06:50:25.186Z,2.67
2022-09-12T06:52:51.978Z,2.50
2022-09-12T06:55:20.408Z,2.20
2022-09-12T06:57:49.502Z,2.45
2022-09-12T07:00:16.230Z,2.47
2022-09-12T07:02:43.774Z,2.33
2022-09-12T07:05:11.435Z,2.10
2022-09-12T07:07:38.318Z,2.50
2022-09-12T07:10:06.903Z,2.38
2022-09-12T07:12:33.759Z,1.90
2022-09-12T07:15:01.125Z,2.00
2022-09-12T07:17:27.923Z,2.33
2022-09-12T07:19:54.623Z,2.33
2022-09-12T07:22:21.342Z,2.10
2022-09-12T07:24:48.110Z,2.00
2022-09-12T07:27:14.875Z,2.10
2022-09-12T07:29:41.600Z,1.90
2022-09-12T07:32:08.914Z,2.33
2022-09-12T07:34:35.648Z,2.38
2022-09-12T07:37:02.438Z,2.13
2022-09-12T07:39:29.186Z,2.00
2022-09-12T07:41:56.193Z,1.88
2022-09-12T07:44:22.921Z,2.10
2022-09-12T07:46:50.758Z,2.00
2022-09-12T07:49:17.513Z,1.60
2022-09-12T07:51:44.341Z,1.98
2022-09-12T07:54:11.091Z,1.83
2022-09-12T07:56:39.433Z,1.80
2022-09-12T07:59:06.783Z,1.75
2022-09-12T08:01:33.756Z,1.63
2022-09-12T08:04:00.696Z,1.55
2022-09-12T08:06:27.542Z,1.80
2022-09-12T08:08:54.276Z,1.67
2022-09-12T08:11:21.125Z,1.60
2022-09-12T08:13:51.679Z,1.48
2022-09-12T08:16:21.854Z,2.38
2022-09-12T08:18:48.523Z,1.90
2022-09-12T08:21:15.242Z,1.85
2022-09-12T08:23:42.720Z,1.50
2022-09-12T08:26:09.587Z,1.33
2022-09-12T08:28:36.323Z,1.70
2022-09-12T08:31:03.117Z,1.48
2022-09-12T08:33:35.870Z,1.80
2022-09-12T08:36:02.716Z,1.80
2022-09-12T08:38:29.404Z,1.70
2022-09-12T08:40:56.187Z,1.65
2022-09-12T08:43:22.865Z,1.30
2022-09-12T08:45:49.636Z,2.10
2022-09-12T08:48:16.371Z,1.50
2022-09-12T08:50:49.354Z,1.55
2022-09-12T08:53:16.880Z,1.70
2022-09-12T08:55:43.560Z,1.52
2022-09-12T08:58:10.545Z,1.30
2022-09-12T09:00:38.207Z,1.17
2022-09-12T09:03:04.968Z,1.65
2022-09-12T09:05:32.237Z,1.40
2022-09-12T09:07:59.376Z,1.30
2022-09-12T09:10:26.080Z,1.63
2022-09-12T09:12:52.850Z,1.92
2022-09-12T09:15:24.869Z,1.40
2022-09-12T09:17:51.711Z,1.33
2022-09-12T09:20:18.733Z,1.38
2022-09-12T09:22:45.636Z,1.33
2022-09-12T09:25:12.396Z,1.40
2022-09-12T09:27:41.220Z,1.52
2022-09-12T09:30:08.328Z,1.40
2022-09-12T09:32:35.051Z,1.70
2022-09-12T09:35:01.790Z,1.73
2022-09-12T09:37:28.599Z,1.98
2022-09-12T09:39:55.349Z,1.52
2022-09-12T09:42:22.137Z,1.70
2022-09-12T09:44:49.163Z,2.08
2022-09-12T09:47:16.020Z,2.35
2022-09-12T09:49:42.879Z,2.15
2022-09-12T09:52:09.630Z,1.90
2022-09-12T09:54:36.370Z,1.60
2022-09-12T09:57:03.911Z,1.73
2022-09-12T09:59:31.123Z,1.80
2022-09-12T10:01:57.969Z,1.52
2022-09-12T10:04:24.675Z,1.58
2022-09-12T10:06:51.571Z,1.27
2022-09-12T10:09:18.822Z,1.35
2022-09-12T10:11:46.131Z,1.60
2022-09-12T10:14:12.923Z,2.00
2022-09-12T10:16:39.619Z,2.00
2022-09-12T10:19:06.345Z,1.92
2022-09-12T10:21:33.193Z,2.03
2022-09-12T10:24:00.225Z,2.65
2022-09-12T10:26:26.994Z,2.35
2022-09-12T10:28:54.152Z,2.60
2022-09-12T10:31:21.612Z,2.28
2022-09-12T10:33:52.729Z,2.22
2022-09-12T10:36:19.626Z,2.35
2022-09-12T10:38:46.370Z,3.13
2022-09-12T10:41:13.135Z,2.17
2022-09-12T10:43:39.910Z,2.10
2022-09-12T10:46:06.691Z,2.17
2022-09-12T10:48:33.581Z,1.88
2022-09-12T10:51:00.329Z,2.10
2022-09-12T10:53:29.958Z,1.98
2022-09-12T10:56:00.656Z,1.90
2022-09-12T10:58:27.359Z,2.00
2022-09-12T11:00:54.109Z,2.00
2022-09-12T11:03:20.843Z,2.15
2022-09-12T11:05:47.656Z,2.10
2022-09-12T11:08:14.389Z,2.45
2022-09-12T11:10:44.309Z,3.00
2022-09-12T11:13:11.346Z,3.03
2022-09-12T11:15:38.121Z,2.83
2022-09-12T11:18:04.942Z,2.80
2022-09-12T11:20:31.640Z,2.92
2022-09-12T11:22:58.414Z,2.15
2022-09-12T11:25:25.151Z,2.08
2022-09-12T11:27:51.923Z,2.03
2022-09-12T11:30:18.623Z,1.85
2022-09-12T11:32:45.459Z,1.92
2022-09-12T11:35:17.133Z,2.03
2022-09-12T11:37:44.276Z,1.75
2022-09-12T11:40:11.075Z,1.70
2022-09-12T11:42:37.970Z,1.30
2022-09-12T11:45:06.164Z,1.58
2022-09-12T11:47:33.041Z,1.58
2022-09-12T11:49:59.731Z,1.60
2022-09-12T11:52:26.448Z,1.42
2022-09-12T11:54:54.013Z,1.40
2022-09-12T11:57:20.940Z,1.17
2022-09-12T11:59:47.659Z,1.33
2022-09-12T12:02:14.470Z,1.40
2022-09-12T12:04:41.221Z,1.10
2022-09-12T12:07:07.971Z,1.17
2022-09-12T12:09:34.713Z,1.25
2022-09-12T12:12:01.492Z,1.13
2022-09-12T12:14:28.195Z,1.15
2022-09-12T12:16:54.945Z,1.10
2022-09-12T12:19:21.625Z,1.30
2022-09-12T12:21:48.405Z,1.30
2022-09-12T12:24:15.558Z,1.45
2022-09-12T12:26:42.723Z,1.40
2022-09-12T12:29:09.514Z,1.20
2022-09-12T12:31:36.273Z,1.30
2022-09-12T12:34:02.987Z,1.30
2022-09-12T12:36:29.823Z,1.17
2022-09-12T12:38:56.495Z,1.30
2022-09-12T12:41:24.083Z,0.90
2022-09-12T12:43:50.905Z,1.30
2022-09-12T12:46:17.784Z,1.25
2022-09-12T12:48:44.851Z,0.95
2022-09-12T12:51:13.917Z,1.30
2022-09-12T12:53:40.592Z,1.27
2022-09-12T12:56:07.708Z,1.05
2022-09-12T12:58:42.766Z,1.10
2022-09-12T13:01:09.655Z,1.10
2022-09-12T13:03:36.330Z,1.02
2022-09-12T13:06:03.330Z,1.05
2022-09-12T13:08:31.650Z,1.00
2022-09-12T13:10:58.429Z,1.27
2022-09-12T13:13:25.190Z,0.93
2022-09-12T13:15:52.114Z,0.90
2022-09-12T13:18:18.855Z,0.90
2022-09-12T13:20:45.699Z,1.10
2022-09-12T13:23:12.376Z,0.90
2022-09-12T13:25:39.074Z,0.98
2022-09-12T13:28:06.258Z,1.00
2022-09-12T13:30:33.122Z,1.15
2022-09-12T13:33:00.031Z,0.90
2022-09-12T13:35:26.867Z,1.10
2022-09-12T13:37:53.557Z,1.10
2022-09-12T13:40:20.437Z,0.90
2022-09-12T13:42:48.550Z,1.20
2022-09-12T13:45:15.340Z,1.10
2022-09-12T13:47:42.127Z,1.10
2022-09-12T13:50:08.900Z,0.85
2022-09-12T13:52:35.906Z,1.20
2022-09-12T13:55:02.672Z,1.13
2022-09-12T13:57:29.902Z,1.30
2022-09-12T13:59:57.695Z,1.30
2022-09-12T14:02:24.415Z,1.10
2022-09-12T14:05:10.283Z,1.02
2022-09-12T14:07:38.117Z,1.15
2022-09-12T14:10:06.057Z,1.30
2022-09-12T14:12:33.516Z,1.40
2022-09-12T14:15:00.214Z,1.30
2022-09-12T14:17:29.514Z,1.38
2022-09-12T14:19:59.405Z,1.20
2022-09-12T14:22:29.394Z,1.30
2022-09-12T14:24:56.165Z,1.13
2022-09-12T14:27:24.552Z,1.30
2022-09-12T14:29:54.006Z,0.80
2022-09-12T14:32:20.791Z,0.90
2022-09-12T14:34:47.567Z,1.20
2022-09-12T14:37:14.321Z,1.23
2022-09-12T14:39:41.285Z,1.33
2022-09-12T14:42:08.051Z,0.90
2022-09-12T14:44:34.910Z,1.20
2022-09-12T14:47:01.620Z,0.90
2022-09-12T14:49:28.490Z,0.90
2022-09-12T14:51:55.682Z,1.00
2022-09-12T14:54:22.373Z,1.20
2022-09-12T14:56:49.102Z,0.90
2022-09-12T14:59:15.812Z,1.23
2022-09-12T15:01:42.488Z,1.10
2022-09-12T15:04:09.220Z,0.95
2022-09-12T15:06:37.754Z,0.88
2022-09-12T15:09:04.538Z,1.00
2022-09-12T15:11:32.998Z,0.93
2022-09-12T15:13:59.711Z,1.38
2022-09-12T15:16:26.443Z,1.25
2022-09-12T15:18:53.187Z,1.08
2022-09-12T15:21:19.994Z,0.90
2022-09-12T15:23:46.791Z,0.90
2022-09-12T15:26:13.558Z,1.15
2022-09-12T15:28:40.312Z,1.17
2022-09-12T15:31:07.211Z,0.90
2022-09-12T15:33:34.096Z,1.10
2022-09-12T15:36:00.746Z,0.80
2022-09-12T15:38:27.897Z,1.35
2022-09-12T15:40:54.687Z,1.02
2022-09-12T15:43:21.516Z,1.50
2022-09-12T15:45:48.209Z,1.60
2022-09-12T15:48:14.960Z,1.42
2022-09-12T15:50:41.657Z,0.90
2022-09-12T15:53:08.324Z,0.90
2022-09-12T15:55:34.980Z,1.10
2022-09-12T15:58:06.897Z,0.93
2022-09-12T16:00:33.991Z,1.00
2022-09-12T16:03:01.041Z,1.38
2022-09-12T16:05:27.935Z,0.90
2022-09-12T16:07:54.633Z,1.00
2022-09-12T16:10:21.363Z,1.05
2022-09-12T16:12:51.439Z,1.13
2022-09-12T16:15:18.386Z,1.40
2022-09-12T16:17:45.064Z,1.00
2022-09-12T16:20:11.812Z,1.52
2022-09-12T16:22:38.487Z,1.45
2022-09-12T16:25:05.185Z,1.10
2022-09-12T16:27:31.839Z,1.30
2022-09-12T16:29:58.776Z,1.45
2022-09-12T16:32:25.487Z,1.45
2022-09-12T16:34:52.215Z,1.30
2022-09-12T16:37:18.858Z,1.30
2022-09-12T16:39:45.646Z,1.20
2022-09-12T16:42:12.449Z,1.20
2022-09-12T16:44:39.156Z,1.90
2022-09-12T16:47:05.867Z,2.67
2022-09-12T16:49:32.666Z,1.50
2022-09-12T16:51:59.605Z,1.10
2022-09-12T16:54:26.316Z,1.15
2022-09-12T16:56:52.982Z,1.40
2022-09-12T16:59:19.765Z,1.45
2022-09-12T17:01:46.560Z,1.75
2022-09-12T17:04:13.433Z,1.55
2022-09-12T17:06:40.147Z,1.35
2022-09-12T17:09:06.981Z,1.60
2022-09-12T17:11:33.634Z,1.25
2022-09-12T17:14:05.461Z,1.58
2022-09-12T17:16:33.082Z,1.67
2022-09-12T17:18:59.731Z,1.60
2022-09-12T17:21:26.427Z,1.70
2022-09-12T17:23:53.089Z,1.55
2022-09-12T17:26:20.792Z,1.20
2022-09-12T17:28:47.497Z,1.25
2022-09-12T17:31:14.605Z,1.50
2022-09-12T17:33:41.392Z,1.40
2022-09-12T17:36:08.308Z,1.00
2022-09-12T17:38:35.308Z,1.15
2022-09-12T17:41:03.027Z,1.20
2022-09-12T17:43:30.004Z,1.10
2022-09-12T17:45:57.391Z,1.48
2022-09-12T17:48:24.204Z,2.20
2022-09-12T17:50:50.892Z,3.78
2022-09-12T17:53:17.922Z,5.13
2022-09-12T17:55:44.645Z,7.93
2022-09-12T17:58:11.291Z,6.65
2022-09-12T18:00:56.721Z,5.57
2022-09-12T18:03:23.445Z,5.25
2022-09-12T18:05:50.164Z,4.30
2022-09-12T18:08:16.957Z,3.85
2022-09-12T18:10:43.604Z,3.50
2022-09-12T18:13:11.056Z,3.80
2022-09-12T18:15:38.466Z,3.38
2022-09-12T18:18:05.176Z,3.00
2022-09-12T18:20:31.907Z,2.83
2022-09-12T18:22:58.568Z,3.88
2022-09-12T18:25:25.650Z,9.80
2022-09-12T18:27:52.438Z,9.05
2022-09-12T18:30:23.510Z,7.20
2022-09-12T18:32:50.719Z,5.18
2022-09-12T18:35:17.447Z,5.18
2022-09-12T18:37:44.957Z,5.07
2022-09-12T18:40:11.846Z,5.13
2022-09-12T18:42:38.586Z,5.10
2022-09-12T18:45:05.231Z,4.93
2022-09-12T18:47:32.185Z,5.70
2022-09-12T18:49:58.827Z,5.63
2022-09-12T18:52:25.597Z,6.63
2022-09-12T18:54:52.278Z,6.78
2022-09-12T18:57:19.250Z,6.20
2022-09-12T18:59:45.932Z,6.40
2022-09-12T19:02:12.744Z,5.68
2022-09-12T19:04:39.527Z,4.97
2022-09-12T19:07:06.457Z,4.50
2022-09-12T19:09:34.038Z,4.40
2022-09-12T19:12:00.719Z,3.95
2022-09-12T19:14:27.470Z,3.72
2022-09-12T19:16:54.237Z,3.42
2022-09-12T19:19:21.226Z,3.08
2022-09-12T19:21:47.924Z,3.10
2022-09-12T19:24:16.244Z,2.80
2022-09-12T19:26:42.947Z,3.55
2022-09-12T19:29:09.577Z,3.20
2022-09-12T19:31:36.389Z,2.83
2022-09-12T19:34:03.210Z,2.70
2022-09-12T19:36:47.042Z,2.58
2022-09-12T19:39:14.361Z,2.28
2022-09-12T19:41:41.175Z,2.47
2022-09-12T19:44:07.933Z,2.22
2022-09-12T19:46:34.606Z,2.50
2022-09-12T19:49:01.400Z,2.10
2022-09-12T19:51:28.274Z,1.88
2022-09-12T19:53:54.955Z,2.05
2022-09-12T19:56:21.806Z,2.00
2022-09-12T19:58:53.497Z,2.08
2022-09-12T20:01:24.955Z,2.03
2022-09-12T20:03:53.849Z,2.25
2022-09-12T20:06:20.770Z,2.10
2022-09-12T20:08:47.510Z,2.00
2022-09-12T20:11:14.352Z,2.08
2022-09-12T20:13:41.241Z,1.90
2022-09-12T20:16:08.025Z,1.95
2022-09-12T20:18:34.734Z,2.10
2022-09-12T20:21:01.446Z,2.40
2022-09-12T20:23:28.178Z,2.40
2022-09-12T20:25:54.935Z,2.55
2022-09-12T20:28:22.116Z,2.60
2022-09-12T20:30:49.246Z,2.47
2022-09-12T20:33:16.076Z,2.45
2022-09-12T20:35:42.783Z,2.17
2022-09-12T20:38:09.455Z,3.05
2022-09-12T20:40:36.192Z,2.72
2022-09-12T20:43:02.835Z,2.80
2022-09-12T20:45:29.551Z,3.28
2022-09-12T20:47:56.381Z,2.90
2022-09-12T20:50:23.088Z,3.63
2022-09-12T20:52:49.800Z,3.28
2022-09-12T20:55:16.568Z,3.00
2022-09-12T20:57:43.242Z,3.00
2022-09-12T21:00:10.058Z,2.40
2022-09-12T21:02:36.850Z,2.80
2022-09-12T21:05:03.753Z,2.50
2022-09-12T21:07:30.497Z,2.95
2022-09-12T21:09:57.285Z,2.70
2022-09-12T21:12:23.972Z,2.95
2022-09-12T21:14:50.716Z,2.65
2022-09-12T21:17:17.433Z,2.35
2022-09-12T21:19:44.198Z,2.20
2022-09-12T21:22:10.921Z,2.70
2022-09-12T21:24:37.677Z,2.40
2022-09-12T21:27:04.708Z,2.35
2022-09-12T21:29:31.594Z,2.40
2022-09-12T21:31:58.283Z,2.10
2022-09-12T21:34:25.046Z,2.80
2022-09-12T21:36:51.745Z,2.45
2022-09-12T21:39:18.484Z,2.70
2022-09-12T21:41:45.198Z,2.55
2022-09-12T21:44:11.952Z,2.88
2022-09-12T21:46:38.717Z,2.40
2022-09-12T21:49:06.580Z,2.33
2022-09-12T21:51:33.223Z,2.80
2022-09-12T21:53:59.934Z,2.75
2022-09-12T21:56:26.626Z,2.80
2022-09-12T21:58:53.346Z,2.88
2022-09-12T22:01:20.062Z,3.17
2022-09-12T22:03:46.885Z,3.03
2022-09-12T22:06:14.383Z,2.92
2022-09-12T22:08:41.257Z,3.08
2022-09-12T22:11:10.854Z,3.00
2022-09-12T22:13:37.673Z,2.80
2022-09-12T22:16:04.426Z,2.72
2022-09-12T22:18:31.169Z,2.85
2022-09-12T22:20:57.831Z,3.53
2022-09-12T22:23:43.485Z,3.38
2022-09-12T22:26:10.233Z,3.50
2022-09-12T22:28:36.933Z,3.75
2022-09-12T22:31:03.731Z,3.60
2022-09-12T22:33:30.444Z,3.50
2022-09-12T22:35:57.182Z,3.33
2022-09-12T22:38:24.801Z,2.95
2022-09-12T22:40:51.793Z,3.45
2022-09-12T22:43:18.568Z,3.55
2022-09-12T22:45:45.273Z,3.60
2022-09-12T22:48:11.972Z,3.40
2022-09-12T22:50:38.749Z,3.42
2022-09-12T22:53:05.432Z,4.25
2022-09-12T22:55:32.373Z,4.03
2022-09-12T22:57:59.253Z,4.07
2022-09-12T23:00:28.001Z,3.80
2022-09-12T23:02:54.917Z,3.92
2022-09-12T23:05:21.724Z,3.75
2022-09-12T23:07:48.660Z,3.90
2022-09-12T23:10:16.281Z,4.00
2022-09-12T23:12:42.940Z,3.70
2022-09-12T23:15:10.252Z,3.40
2022-09-12T23:17:36.929Z,3.55
2022-09-12T23:20:04.043Z,3.63
2022-09-12T23:22:31.030Z,3.50
2022-09-12T23:24:57.741Z,4.60
2022-09-12T23:27:24.407Z,3.92
2022-09-12T23:29:52.414Z,4.18
2022-09-12T23:32:20.983Z,4.80
2022-09-12T23:34:48.011Z,4.95
2022-09-12T23:37:14.714Z,5.10
2022-09-12T23:39:42.428Z,5.82
2022-09-12T23:42:09.201Z,6.40
2022-09-12T23:44:35.917Z,5.57
2022-09-12T23:47:03.238Z,6.22
2022-09-12T23:49:30.237Z,5.88
2022-09-12T23:51:56.933Z,5.75
2022-09-12T23:54:25.133Z,5.78
2022-09-12T23:56:51.771Z,5.60
2022-09-12T23:59:18.487Z,5.90
